sensor_id;sensor_type;location;lat;lon;timestamp;P1;durP1;ratioP1;P2;durP2;ratioP2
4674;SDS011;2351;50.812;12.872;2023-02-03T00:01:54;6.37;;;2.23;;
4674;SDS011;2351;50.812;12.872;2023-02-03T00:04:26;3.37;;;2.00;;
4674;SDS011;2351;50.812;12.872;2023-02-03T00:06:57;2.67;;;1.70;;
4674;SDS011;2351;50.812;12.872;2023-02-03T00:09:31;5.47;;;2.60;;
4674;SDS011;2351;50.812;12.872;2023-02-03T00:12:03;3.10;;;2.03;;
4674;SDS011;2351;50.812;12.872;2023-02-03T00:14:35;9.30;;;2.23;;
4674;SDS011;2351;50.812;12.872;2023-02-03T00:17:08;2.10;;;1.27;;
4674;SDS011;2351;50.812;12.872;2023-02-03T00:19:39;2.90;;;1.80;;
4674;SDS011;2351;50.812;12.872;2023-02-03T00:22:11;2.13;;;1.20;;
4674;SDS011;2351;50.812;12.872;2023-02-03T00:24:44;11.97;;;2.03;;
4674;SDS011;2351;50.812;12.872;2023-02-03T00:27:16;2.90;;;1.33;;
4674;SDS011;2351;50.812;12.872;2023-02-03T00:29:47;2.00;;;1.20;;
4674;SDS011;2351;50.812;12.872;2023-02-03T00:32:19;8.73;;;1.60;;
4674;SDS011;2351;50.812;12.872;2023-02-03T00:34:51;3.60;;;1.70;;
4674;SDS011;2351;50.812;12.872;2023-02-03T00:37:23;3.33;;;0.97;;
4674;SDS011;2351;50.812;12.872;2023-02-03T00:39:56;3.87;;;1.90;;
4674;SDS011;2351;50.812;12.872;2023-02-03T00:42:27;2.53;;;1.87;;
4674;SDS011;2351;50.812;12.872;2023-02-03T00:44:59;3.70;;;1.13;;
4674;SDS011;2351;50.812;12.872;2023-02-03T00:47:31;0.87;;;0.87;;
4674;SDS011;2351;50.812;12.872;2023-02-03T00:50:03;4.87;;;1.00;;
4674;SDS011;2351;50.812;12.872;2023-02-03T00:52:36;2.93;;;1.33;;
4674;SDS011;2351;50.812;12.872;2023-02-03T00:55:09;5.27;;;1.40;;
4674;SDS011;2351;50.812;12.872;2023-02-03T00:57:40;2.03;;;1.23;;
4674;SDS011;2351;50.812;12.872;2023-02-03T01:00:12;2.30;;;1.23;;
4674;SDS011;2351;50.812;12.872;2023-02-03T01:02:45;1.43;;;1.03;;
4674;SDS011;2351;50.812;12.872;2023-02-03T01:05:16;4.10;;;1.33;;
4674;SDS011;2351;50.812;12.872;2023-02-03T01:07:48;4.10;;;1.90;;
4674;SDS011;2351;50.812;12.872;2023-02-03T01:10:21;3.73;;;2.07;;
4674;SDS011;2351;50.812;12.872;2023-02-03T01:12:53;2.20;;;1.20;;
4674;SDS011;2351;50.812;12.872;2023-02-03T01:15:25;1.20;;;1.10;;
4674;SDS011;2351;50.812;12.872;2023-02-03T01:17:56;1.43;;;1.23;;
4674;SDS011;2351;50.812;12.872;2023-02-03T01:20:28;1.73;;;1.00;;
4674;SDS011;2351;50.812;12.872;2023-02-03T01:23:00;1.30;;;1.20;;
4674;SDS011;2351;50.812;12.872;2023-02-03T01:25:34;3.77;;;1.83;;
4674;SDS011;2351;50.812;12.872;2023-02-03T01:28:06;0.90;;;0.90;;
4674;SDS011;2351;50.812;12.872;2023-02-03T01:30:38;2.10;;;1.63;;
4674;SDS011;2351;50.812;12.872;2023-02-03T01:33:10;1.30;;;1.00;;
4674;SDS011;2351;50.812;12.872;2023-02-03T01:35:41;1.40;;;0.90;;
4674;SDS011;2351;50.812;12.872;2023-02-03T01:38:13;2.33;;;1.10;;
4674;SDS011;2351;50.812;12.872;2023-02-03T01:40:46;1.90;;;0.80;;
4674;SDS011;2351;50.812;12.872;2023-02-03T01:43:27;0.97;;;0.97;;
4674;SDS011;2351;50.812;12.872;2023-02-03T01:46:01;5.20;;;1.13;;
4674;SDS011;2351;50.812;12.872;2023-02-03T01:48:36;1.00;;;0.97;;
4674;SDS011;2351;50.812;12.872;2023-02-03T01:51:08;1.73;;;1.30;;
4674;SDS011;2351;50.812;12.872;2023-02-03T01:53:40;2.97;;;1.20;;
4674;SDS011;2351;50.812;12.872;2023-02-03T01:56:13;1.17;;;0.97;;
4674;SDS011;2351;50.812;12.872;2023-02-03T01:58:46;1.03;;;0.93;;
4674;SDS011;2351;50.812;12.872;2023-02-03T02:01:19;1.40;;;1.13;;
4674;SDS011;2351;50.812;12.872;2023-02-03T02:03:51;1.53;;;1.23;;
4674;SDS011;2351;50.812;12.872;2023-02-03T02:06:26;1.83;;;1.73;;
4674;SDS011;2351;50.812;12.872;2023-02-03T02:08:58;2.33;;;1.87;;
4674;SDS011;2351;50.812;12.872;2023-02-03T02:11:32;2.00;;;1.90;;
4674;SDS011;2351;50.812;12.872;2023-02-03T02:14:04;5.13;;;1.97;;
4674;SDS011;2351;50.812;12.872;2023-02-03T02:16:39;2.00;;;1.80;;
4674;SDS011;2351;50.812;12.872;2023-02-03T02:19:22;2.50;;;2.00;;
4674;SDS011;2351;50.812;12.872;2023-02-03T02:22:13;3.00;;;2.40;;
4674;SDS011;2351;50.812;12.872;2023-02-03T02:34:18;3.60;;;2.80;;
4674;SDS011;2351;50.812;12.872;2023-02-03T02:36:59;2.83;;;2.00;;
4674;SDS011;2351;50.812;12.872;2023-02-03T02:39:37;2.70;;;2.17;;
4674;SDS011;2351;50.812;12.872;2023-02-03T02:42:14;2.37;;;2.00;;
4674;SDS011;2351;50.812;12.872;2023-02-03T02:44:55;4.70;;;2.77;;
4674;SDS011;2351;50.812;12.872;2023-02-03T02:47:35;3.43;;;1.63;;
4674;SDS011;2351;50.812;12.872;2023-02-03T02:50:10;3.33;;;2.73;;
4674;SDS011;2351;50.812;12.872;2023-02-03T02:52:47;2.97;;;2.23;;
4674;SDS011;2351;50.812;12.872;2023-02-03T02:55:21;3.37;;;2.30;;
4674;SDS011;2351;50.812;12.872;2023-02-03T02:57:57;3.70;;;2.10;;
4674;SDS011;2351;50.812;12.872;2023-02-03T03:00:34;2.93;;;2.40;;
4674;SDS011;2351;50.812;12.872;2023-02-03T03:03:11;2.10;;;1.97;;
4674;SDS011;2351;50.812;12.872;2023-02-03T03:05:47;2.83;;;2.00;;
4674;SDS011;2351;50.812;12.872;2023-02-03T03:08:22;2.10;;;1.60;;
4674;SDS011;2351;50.812;12.872;2023-02-03T03:10:57;3.47;;;1.80;;
4674;SDS011;2351;50.812;12.872;2023-02-03T03:13:33;2.60;;;2.07;;
4674;SDS011;2351;50.812;12.872;2023-02-03T03:16:09;6.50;;;1.53;;
4674;SDS011;2351;50.812;12.872;2023-02-03T03:18:45;1.90;;;1.10;;
4674;SDS011;2351;50.812;12.872;2023-02-03T03:21:21;1.70;;;1.60;;
4674;SDS011;2351;50.812;12.872;2023-02-03T03:23:56;2.17;;;1.67;;
4674;SDS011;2351;50.812;12.872;2023-02-03T03:26:33;1.90;;;1.80;;
4674;SDS011;2351;50.812;12.872;2023-02-03T03:29:09;2.10;;;1.60;;
4674;SDS011;2351;50.812;12.872;2023-02-03T03:31:44;2.40;;;2.20;;
4674;SDS011;2351;50.812;12.872;2023-02-03T03:34:17;3.00;;;1.83;;
4674;SDS011;2351;50.812;12.872;2023-02-03T03:36:52;2.87;;;2.40;;
4674;SDS011;2351;50.812;12.872;2023-02-03T03:39:30;3.37;;;2.50;;
4674;SDS011;2351;50.812;12.872;2023-02-03T03:42:09;2.30;;;1.73;;
4674;SDS011;2351;50.812;12.872;2023-02-03T03:44:46;2.53;;;1.97;;
4674;SDS011;2351;50.812;12.872;2023-02-03T03:47:27;3.23;;;2.37;;
4674;SDS011;2351;50.812;12.872;2023-02-03T03:50:05;4.50;;;2.80;;
4674;SDS011;2351;50.812;12.872;2023-02-03T03:52:42;4.70;;;2.30;;
4674;SDS011;2351;50.812;12.872;2023-02-03T03:55:17;3.03;;;2.47;;
4674;SDS011;2351;50.812;12.872;2023-02-03T03:57:51;11.37;;;2.97;;
4674;SDS011;2351;50.812;12.872;2023-02-03T04:00:29;4.03;;;2.87;;
4674;SDS011;2351;50.812;12.872;2023-02-03T04:03:04;3.87;;;3.07;;
4674;SDS011;2351;50.812;12.872;2023-02-03T04:05:41;5.33;;;2.67;;
4674;SDS011;2351;50.812;12.872;2023-02-03T04:08:15;3.00;;;2.27;;
4674;SDS011;2351;50.812;12.872;2023-02-03T04:10:46;3.53;;;3.10;;
4674;SDS011;2351;50.812;12.872;2023-02-03T04:13:18;5.03;;;3.00;;
4674;SDS011;2351;50.812;12.872;2023-02-03T04:15:50;4.97;;;2.90;;
4674;SDS011;2351;50.812;12.872;2023-02-03T04:18:22;6.57;;;3.13;;
4674;SDS011;2351;50.812;12.872;2023-02-03T04:20:53;5.60;;;3.63;;
4674;SDS011;2351;50.812;12.872;2023-02-03T04:23:27;6.10;;;3.50;;
4674;SDS011;2351;50.812;12.872;2023-02-03T04:25:59;5.50;;;3.70;;
4674;SDS011;2351;50.812;12.872;2023-02-03T04:28:31;6.10;;;3.37;;
4674;SDS011;2351;50.812;12.872;2023-02-03T04:31:03;7.40;;;4.00;;
4674;SDS011;2351;50.812;12.872;2023-02-03T04:33:35;6.60;;;4.13;;
4674;SDS011;2351;50.812;12.872;2023-02-03T04:36:07;8.93;;;4.60;;
4674;SDS011;2351;50.812;12.872;2023-02-03T04:38:40;6.97;;;4.50;;
4674;SDS011;2351;50.812;12.872;2023-02-03T04:41:12;8.10;;;4.80;;
4674;SDS011;2351;50.812;12.872;2023-02-03T04:43:44;9.67;;;4.60;;
4674;SDS011;2351;50.812;12.872;2023-02-03T04:46:16;10.43;;;5.63;;
4674;SDS011;2351;50.812;12.872;2023-02-03T04:48:48;5.37;;;3.90;;
4674;SDS011;2351;50.812;12.872;2023-02-03T04:51:19;8.67;;;5.00;;
4674;SDS011;2351;50.812;12.872;2023-02-03T04:53:52;6.77;;;5.03;;
4674;SDS011;2351;50.812;12.872;2023-02-03T04:56:24;9.50;;;4.60;;
4674;SDS011;2351;50.812;12.872;2023-02-03T04:58:56;10.40;;;4.13;;
4674;SDS011;2351;50.812;12.872;2023-02-03T05:01:27;10.37;;;6.03;;
4674;SDS011;2351;50.812;12.872;2023-02-03T05:03:59;9.17;;;5.10;;
4674;SDS011;2351;50.812;12.872;2023-02-03T05:06:31;12.03;;;6.37;;
4674;SDS011;2351;50.812;12.872;2023-02-03T05:09:05;8.90;;;5.27;;
4674;SDS011;2351;50.812;12.872;2023-02-03T05:11:37;8.23;;;5.33;;
4674;SDS011;2351;50.812;12.872;2023-02-03T05:14:09;7.10;;;4.27;;
4674;SDS011;2351;50.812;12.872;2023-02-03T05:16:40;9.50;;;5.00;;
4674;SDS011;2351;50.812;12.872;2023-02-03T05:19:12;9.93;;;5.10;;
4674;SDS011;2351;50.812;12.872;2023-02-03T05:21:44;7.73;;;5.07;;
4674;SDS011;2351;50.812;12.872;2023-02-03T05:24:17;12.87;;;5.37;;
4674;SDS011;2351;50.812;12.872;2023-02-03T05:26:48;10.47;;;5.23;;
4674;SDS011;2351;50.812;12.872;2023-02-03T05:29:20;8.13;;;4.70;;
4674;SDS011;2351;50.812;12.872;2023-02-03T05:31:52;8.20;;;5.37;;
4674;SDS011;2351;50.812;12.872;2023-02-03T05:34:24;10.13;;;5.90;;
4674;SDS011;2351;50.812;12.872;2023-02-03T05:36:55;6.07;;;4.27;;
4674;SDS011;2351;50.812;12.872;2023-02-03T05:39:29;8.30;;;4.77;;
4674;SDS011;2351;50.812;12.872;2023-02-03T05:42:00;7.30;;;4.73;;
4674;SDS011;2351;50.812;12.872;2023-02-03T05:44:32;11.43;;;5.33;;
4674;SDS011;2351;50.812;12.872;2023-02-03T05:47:04;6.87;;;4.50;;
4674;SDS011;2351;50.812;12.872;2023-02-03T05:49:35;7.60;;;5.00;;
4674;SDS011;2351;50.812;12.872;2023-02-03T05:52:07;6.57;;;3.90;;
4674;SDS011;2351;50.812;12.872;2023-02-03T05:54:40;8.40;;;4.70;;
4674;SDS011;2351;50.812;12.872;2023-02-03T05:57:12;8.77;;;4.87;;
4674;SDS011;2351;50.812;12.872;2023-02-03T05:59:44;7.20;;;4.43;;
4674;SDS011;2351;50.812;12.872;2023-02-03T06:02:15;12.43;;;4.50;;
4674;SDS011;2351;50.812;12.872;2023-02-03T06:04:47;7.50;;;4.77;;
4674;SDS011;2351;50.812;12.872;2023-02-03T06:07:19;12.47;;;5.30;;
4674;SDS011;2351;50.812;12.872;2023-02-03T06:09:52;6.90;;;4.03;;
4674;SDS011;2351;50.812;12.872;2023-02-03T06:12:24;7.50;;;4.87;;
4674;SDS011;2351;50.812;12.872;2023-02-03T06:14:55;7.73;;;4.47;;
4674;SDS011;2351;50.812;12.872;2023-02-03T06:17:27;6.60;;;3.33;;
4674;SDS011;2351;50.812;12.872;2023-02-03T06:19:59;8.27;;;4.20;;
4674;SDS011;2351;50.812;12.872;2023-02-03T06:22:31;6.23;;;3.97;;
4674;SDS011;2351;50.812;12.872;2023-02-03T06:25:05;7.50;;;4.50;;
4674;SDS011;2351;50.812;12.872;2023-02-03T06:27:37;4.17;;;3.40;;
4674;SDS011;2351;50.812;12.872;2023-02-03T06:30:09;7.97;;;4.00;;
4674;SDS011;2351;50.812;12.872;2023-02-03T06:32:42;6.80;;;4.03;;
4674;SDS011;2351;50.812;12.872;2023-02-03T06:35:13;7.40;;;4.33;;
4674;SDS011;2351;50.812;12.872;2023-02-03T06:37:46;4.63;;;3.13;;
4674;SDS011;2351;50.812;12.872;2023-02-03T06:40:19;7.10;;;3.10;;
4674;SDS011;2351;50.812;12.872;2023-02-03T06:42:51;4.40;;;3.20;;
4674;SDS011;2351;50.812;12.872;2023-02-03T06:45:22;2.60;;;2.33;;
4674;SDS011;2351;50.812;12.872;2023-02-03T06:47:55;2.70;;;2.50;;
4674;SDS011;2351;50.812;12.872;2023-02-03T06:50:26;3.30;;;2.50;;
4674;SDS011;2351;50.812;12.872;2023-02-03T06:52:58;2.50;;;2.03;;
4674;SDS011;2351;50.812;12.872;2023-02-03T06:55:31;8.03;;;2.57;;
4674;SDS011;2351;50.812;12.872;2023-02-03T06:58:03;2.10;;;1.90;;
4674;SDS011;2351;50.812;12.872;2023-02-03T07:00:35;2.83;;;2.30;;
4674;SDS011;2351;50.812;12.872;2023-02-03T07:03:07;3.27;;;2.50;;
4674;SDS011;2351;50.812;12.872;2023-02-03T07:05:38;3.33;;;2.67;;
4674;SDS011;2351;50.812;12.872;2023-02-03T07:08:10;3.50;;;2.00;;
4674;SDS011;2351;50.812;12.872;2023-02-03T07:10:43;2.47;;;2.23;;
4674;SDS011;2351;50.812;12.872;2023-02-03T07:13:15;2.30;;;2.10;;
4674;SDS011;2351;50.812;12.872;2023-02-03T07:15:47;4.17;;;2.47;;
4674;SDS011;2351;50.812;12.872;2023-02-03T07:18:18;1.93;;;1.73;;
4674;SDS011;2351;50.812;12.872;2023-02-03T07:20:53;1.90;;;1.80;;
4674;SDS011;2351;50.812;12.872;2023-02-03T07:23:25;1.83;;;1.73;;
4674;SDS011;2351;50.812;12.872;2023-02-03T07:25:59;1.87;;;1.77;;
4674;SDS011;2351;50.812;12.872;2023-02-03T07:28:32;1.77;;;1.67;;
4674;SDS011;2351;50.812;12.872;2023-02-03T07:31:04;1.77;;;1.17;;
4674;SDS011;2351;50.812;12.872;2023-02-03T07:33:39;1.30;;;1.20;;
4674;SDS011;2351;50.812;12.872;2023-02-03T07:36:11;2.83;;;1.60;;
4674;SDS011;2351;50.812;12.872;2023-02-03T07:38:42;1.83;;;1.70;;
4674;SDS011;2351;50.812;12.872;2023-02-03T07:41:15;2.43;;;1.60;;
4674;SDS011;2351;50.812;12.872;2023-02-03T07:43:47;1.40;;;1.30;;
4674;SDS011;2351;50.812;12.872;2023-02-03T07:46:19;3.77;;;1.80;;
4674;SDS011;2351;50.812;12.872;2023-02-03T07:48:50;1.53;;;1.43;;
4674;SDS011;2351;50.812;12.872;2023-02-03T07:51:22;1.73;;;1.53;;
4674;SDS011;2351;50.812;12.872;2023-02-03T07:53:55;1.70;;;1.60;;
4674;SDS011;2351;50.812;12.872;2023-02-03T07:56:28;2.20;;;1.43;;
4674;SDS011;2351;50.812;12.872;2023-02-03T07:59:01;2.83;;;2.10;;
4674;SDS011;2351;50.812;12.872;2023-02-03T08:01:33;2.20;;;1.93;;
4674;SDS011;2351;50.812;12.872;2023-02-03T08:04:05;2.30;;;2.07;;
4674;SDS011;2351;50.812;12.872;2023-02-03T08:06:37;2.83;;;2.20;;
4674;SDS011;2351;50.812;12.872;2023-02-03T08:09:09;3.53;;;1.80;;
4674;SDS011;2351;50.812;12.872;2023-02-03T08:11:42;3.63;;;1.87;;
4674;SDS011;2351;50.812;12.872;2023-02-03T08:14:14;2.47;;;1.93;;
4674;SDS011;2351;50.812;12.872;2023-02-03T08:16:46;2.90;;;1.80;;
4674;SDS011;2351;50.812;12.872;2023-02-03T08:19:17;4.00;;;2.40;;
4674;SDS011;2351;50.812;12.872;2023-02-03T08:21:49;2.10;;;1.90;;
4674;SDS011;2351;50.812;12.872;2023-02-03T08:24:21;5.77;;;2.07;;
4674;SDS011;2351;50.812;12.872;2023-02-03T08:26:54;1.73;;;1.53;;
4674;SDS011;2351;50.812;12.872;2023-02-03T08:29:26;1.90;;;1.47;;
4674;SDS011;2351;50.812;12.872;2023-02-03T08:31:57;4.60;;;2.70;;
4674;SDS011;2351;50.812;12.872;2023-02-03T08:34:29;2.10;;;1.90;;
4674;SDS011;2351;50.812;12.872;2023-02-03T08:37:03;5.40;;;2.30;;
4674;SDS011;2351;50.812;12.872;2023-02-03T08:39:35;3.43;;;2.10;;
4674;SDS011;2351;50.812;12.872;2023-02-03T08:42:09;4.20;;;2.27;;
4674;SDS011;2351;50.812;12.872;2023-02-03T08:47:19;2.43;;;2.23;;
4674;SDS011;2351;50.812;12.872;2023-02-03T08:49:51;2.03;;;1.83;;
4674;SDS011;2351;50.812;12.872;2023-02-03T08:52:23;5.17;;;2.60;;
4674;SDS011;2351;50.812;12.872;2023-02-03T08:54:55;7.17;;;2.53;;
4674;SDS011;2351;50.812;12.872;2023-02-03T08:57:28;3.20;;;2.87;;
4674;SDS011;2351;50.812;12.872;2023-02-03T09:00:03;2.80;;;2.23;;
4674;SDS011;2351;50.812;12.872;2023-02-03T09:02:36;3.73;;;2.80;;
4674;SDS011;2351;50.812;12.872;2023-02-03T09:05:08;2.73;;;2.10;;
4674;SDS011;2351;50.812;12.872;2023-02-03T09:07:40;6.40;;;2.70;;
4674;SDS011;2351;50.812;12.872;2023-02-03T09:10:11;3.00;;;2.23;;
4674;SDS011;2351;50.812;12.872;2023-02-03T09:12:45;4.90;;;2.57;;
4674;SDS011;2351;50.812;12.872;2023-02-03T09:15:16;3.13;;;2.23;;
4674;SDS011;2351;50.812;12.872;2023-02-03T09:17:48;7.30;;;2.90;;
4674;SDS011;2351;50.812;12.872;2023-02-03T09:20:20;3.67;;;2.90;;
4674;SDS011;2351;50.812;12.872;2023-02-03T09:22:53;4.40;;;2.70;;
4674;SDS011;2351;50.812;12.872;2023-02-03T09:25:28;4.20;;;1.80;;
4674;SDS011;2351;50.812;12.872;2023-02-03T09:28:01;5.47;;;2.63;;
4674;SDS011;2351;50.812;12.872;2023-02-03T09:30:33;4.97;;;2.57;;
4674;SDS011;2351;50.812;12.872;2023-02-03T09:33:05;4.00;;;2.60;;
4674;SDS011;2351;50.812;12.872;2023-02-03T09:35:36;3.47;;;2.30;;
4674;SDS011;2351;50.812;12.872;2023-02-03T09:38:09;4.60;;;1.97;;
4674;SDS011;2351;50.812;12.872;2023-02-03T09:40:41;4.20;;;2.30;;
4674;SDS011;2351;50.812;12.872;2023-02-03T09:43:16;3.13;;;2.57;;
4674;SDS011;2351;50.812;12.872;2023-02-03T09:45:59;3.43;;;2.50;;
4674;SDS011;2351;50.812;12.872;2023-02-03T09:48:34;5.43;;;2.70;;
4674;SDS011;2351;50.812;12.872;2023-02-03T09:51:12;4.80;;;2.60;;
4674;SDS011;2351;50.812;12.872;2023-02-03T09:53:50;3.63;;;2.53;;
4674;SDS011;2351;50.812;12.872;2023-02-03T09:56:28;4.27;;;2.40;;
4674;SDS011;2351;50.812;12.872;2023-02-03T09:59:03;2.90;;;2.10;;
4674;SDS011;2351;50.812;12.872;2023-02-03T10:01:37;2.63;;;2.10;;
4674;SDS011;2351;50.812;12.872;2023-02-03T10:04:20;3.37;;;2.17;;
4674;SDS011;2351;50.812;12.872;2023-02-03T10:07:01;4.37;;;2.87;;
4674;SDS011;2351;50.812;12.872;2023-02-03T10:09:44;4.60;;;2.20;;
4674;SDS011;2351;50.812;12.872;2023-02-03T10:12:28;5.43;;;2.17;;
4674;SDS011;2351;50.812;12.872;2023-02-03T10:18:22;3.27;;;2.60;;
4674;SDS011;2351;50.812;12.872;2023-02-03T10:20:59;3.60;;;2.57;;
4674;SDS011;2351;50.812;12.872;2023-02-03T10:23:35;5.03;;;2.60;;
4674;SDS011;2351;50.812;12.872;2023-02-03T10:26:13;2.60;;;2.27;;
4674;SDS011;2351;50.812;12.872;2023-02-03T10:28:50;4.00;;;2.40;;
4674;SDS011;2351;50.812;12.872;2023-02-03T10:31:27;7.93;;;3.00;;
4674;SDS011;2351;50.812;12.872;2023-02-03T10:34:07;2.77;;;2.40;;
4674;SDS011;2351;50.812;12.872;2023-02-03T10:36:53;11.30;;;2.77;;
4674;SDS011;2351;50.812;12.872;2023-02-03T10:39:28;4.20;;;2.47;;
4674;SDS011;2351;50.812;12.872;2023-02-03T10:42:03;4.57;;;2.40;;
4674;SDS011;2351;50.812;12.872;2023-02-03T10:44:36;5.30;;;3.53;;
4674;SDS011;2351;50.812;12.872;2023-02-03T10:47:14;4.10;;;2.63;;
4674;SDS011;2351;50.812;12.872;2023-02-03T10:49:52;4.00;;;2.30;;
4674;SDS011;2351;50.812;12.872;2023-02-03T10:52:27;2.43;;;2.13;;
4674;SDS011;2351;50.812;12.872;2023-02-03T10:55:03;5.30;;;2.37;;
4674;SDS011;2351;50.812;12.872;2023-02-03T10:57:37;2.23;;;2.03;;
4674;SDS011;2351;50.812;12.872;2023-02-03T11:00:19;3.30;;;2.50;;
4674;SDS011;2351;50.812;12.872;2023-02-03T11:02:55;1.90;;;1.80;;
4674;SDS011;2351;50.812;12.872;2023-02-03T11:05:29;7.93;;;2.30;;
4674;SDS011;2351;50.812;12.872;2023-02-03T11:08:01;3.97;;;3.20;;
4674;SDS011;2351;50.812;12.872;2023-02-03T11:10:33;2.60;;;2.10;;
4674;SDS011;2351;50.812;12.872;2023-02-03T11:13:10;4.10;;;1.70;;
4674;SDS011;2351;50.812;12.872;2023-02-03T11:15:50;2.97;;;2.20;;
4674;SDS011;2351;50.812;12.872;2023-02-03T11:18:38;1.83;;;1.73;;
4674;SDS011;2351;50.812;12.872;2023-02-03T11:21:15;2.57;;;2.00;;
4674;SDS011;2351;50.812;12.872;2023-02-03T11:23:50;2.43;;;1.70;;
4674;SDS011;2351;50.812;12.872;2023-02-03T11:26:26;1.40;;;1.30;;
4674;SDS011;2351;50.812;12.872;2023-02-03T11:29:00;1.80;;;1.70;;
4674;SDS011;2351;50.812;12.872;2023-02-03T11:31:34;3.97;;;1.97;;
4674;SDS011;2351;50.812;12.872;2023-02-03T11:34:13;1.53;;;1.40;;
4674;SDS011;2351;50.812;12.872;2023-02-03T11:36:47;6.00;;;2.10;;
4674;SDS011;2351;50.812;12.872;2023-02-03T11:39:20;1.83;;;1.63;;
4674;SDS011;2351;50.812;12.872;2023-02-03T11:41:56;5.97;;;1.70;;
4674;SDS011;2351;50.812;12.872;2023-02-03T11:44:28;2.60;;;1.50;;
4674;SDS011;2351;50.812;12.872;2023-02-03T11:47:02;1.47;;;1.33;;
4674;SDS011;2351;50.812;12.872;2023-02-03T11:49:49;1.40;;;1.30;;
4674;SDS011;2351;50.812;12.872;2023-02-03T11:52:53;1.30;;;1.20;;
4674;SDS011;2351;50.812;12.872;2023-02-03T11:55:40;1.50;;;1.40;;
4674;SDS011;2351;50.812;12.872;2023-02-03T11:58:29;3.70;;;1.60;;
4674;SDS011;2351;50.812;12.872;2023-02-03T12:01:15;2.40;;;1.40;;
4674;SDS011;2351;50.812;12.872;2023-02-03T12:04:09;1.80;;;1.70;;
4674;SDS011;2351;50.812;12.872;2023-02-03T12:10:08;4.00;;;1.60;;
4674;SDS011;2351;50.812;12.872;2023-02-03T12:12:53;1.87;;;1.73;;
4674;SDS011;2351;50.812;12.872;2023-02-03T12:15:41;1.83;;;1.43;;
4674;SDS011;2351;50.812;12.872;2023-02-03T12:18:28;1.90;;;1.80;;
4674;SDS011;2351;50.812;12.872;2023-02-03T12:21:13;4.37;;;1.83;;
4674;SDS011;2351;50.812;12.872;2023-02-03T12:24:10;1.80;;;1.70;;
4674;SDS011;2351;50.812;12.872;2023-02-03T12:26:55;2.23;;;1.83;;
4674;SDS011;2351;50.812;12.872;2023-02-03T12:29:35;2.60;;;2.20;;
4674;SDS011;2351;50.812;12.872;2023-02-03T12:32:13;2.47;;;2.27;;
4674;SDS011;2351;50.812;12.872;2023-02-03T12:34:57;2.93;;;2.53;;
4674;SDS011;2351;50.812;12.872;2023-02-03T12:37:33;5.20;;;2.30;;
4674;SDS011;2351;50.812;12.872;2023-02-03T12:40:14;3.53;;;2.20;;
4674;SDS011;2351;50.812;12.872;2023-02-03T12:42:53;3.90;;;2.80;;
4674;SDS011;2351;50.812;12.872;2023-02-03T12:45:30;3.10;;;2.70;;
4674;SDS011;2351;50.812;12.872;2023-02-03T12:48:09;2.90;;;2.03;;
4674;SDS011;2351;50.812;12.872;2023-02-03T12:50:47;3.80;;;3.00;;
4674;SDS011;2351;50.812;12.872;2023-02-03T12:53:21;4.13;;;2.40;;
4674;SDS011;2351;50.812;12.872;2023-02-03T12:56:02;3.00;;;2.57;;
4674;SDS011;2351;50.812;12.872;2023-02-03T12:58:40;4.40;;;2.23;;
4674;SDS011;2351;50.812;12.872;2023-02-03T13:01:19;1.60;;;1.50;;
4674;SDS011;2351;50.812;12.872;2023-02-03T13:03:54;2.37;;;2.13;;
4674;SDS011;2351;50.812;12.872;2023-02-03T13:06:35;1.70;;;1.60;;
4674;SDS011;2351;50.812;12.872;2023-02-03T13:09:24;5.37;;;2.20;;
4674;SDS011;2351;50.812;12.872;2023-02-03T13:12:04;3.40;;;1.47;;
4674;SDS011;2351;50.812;12.872;2023-02-03T13:14:41;1.20;;;1.00;;
4674;SDS011;2351;50.812;12.872;2023-02-03T13:17:19;1.60;;;1.50;;
4674;SDS011;2351;50.812;12.872;2023-02-03T13:19:57;1.50;;;1.40;;
4674;SDS011;2351;50.812;12.872;2023-02-03T13:22:33;1.47;;;1.37;;
4674;SDS011;2351;50.812;12.872;2023-02-03T13:25:06;1.30;;;1.20;;
4674;SDS011;2351;50.812;12.872;2023-02-03T13:27:50;1.40;;;1.30;;
4674;SDS011;2351;50.812;12.872;2023-02-03T13:30:49;3.23;;;1.70;;
4674;SDS011;2351;50.812;12.872;2023-02-03T13:36:58;2.10;;;1.70;;
4674;SDS011;2351;50.812;12.872;2023-02-03T13:40:05;1.70;;;1.60;;
4674;SDS011;2351;50.812;12.872;2023-02-03T13:42:46;1.47;;;1.37;;
4674;SDS011;2351;50.812;12.872;2023-02-03T13:45:26;2.00;;;1.43;;
4674;SDS011;2351;50.812;12.872;2023-02-03T13:48:05;1.60;;;1.50;;
4674;SDS011;2351;50.812;12.872;2023-02-03T13:50:41;1.80;;;1.53;;
4674;SDS011;2351;50.812;12.872;2023-02-03T13:53:15;2.57;;;1.63;;
4674;SDS011;2351;50.812;12.872;2023-02-03T13:55:52;4.13;;;2.53;;
4674;SDS011;2351;50.812;12.872;2023-02-03T13:58:27;5.13;;;1.93;;
4674;SDS011;2351;50.812;12.872;2023-02-03T14:01:05;1.60;;;1.50;;
4674;SDS011;2351;50.812;12.872;2023-02-03T14:03:52;2.60;;;1.40;;
4674;SDS011;2351;50.812;12.872;2023-02-03T14:09:35;6.70;;;2.73;;
4674;SDS011;2351;50.812;12.872;2023-02-03T14:15:17;1.53;;;1.10;;
4674;SDS011;2351;50.812;12.872;2023-02-03T14:18:02;2.20;;;0.93;;
4674;SDS011;2351;50.812;12.872;2023-02-03T14:23:45;1.30;;;1.20;;
4674;SDS011;2351;50.812;12.872;2023-02-03T14:26:22;1.27;;;0.90;;
4674;SDS011;2351;50.812;12.872;2023-02-03T14:29:00;0.93;;;0.83;;
4674;SDS011;2351;50.812;12.872;2023-02-03T14:34:32;2.70;;;0.77;;
4674;SDS011;2351;50.812;12.872;2023-02-03T14:40:01;5.20;;;1.47;;
4674;SDS011;2351;50.812;12.872;2023-02-03T14:42:54;2.03;;;0.70;;
4674;SDS011;2351;50.812;12.872;2023-02-03T14:46:08;4.77;;;0.93;;
4674;SDS011;2351;50.812;12.872;2023-02-03T14:48:53;1.87;;;0.70;;
4674;SDS011;2351;50.812;12.872;2023-02-03T14:51:39;3.50;;;0.80;;
4674;SDS011;2351;50.812;12.872;2023-02-03T14:54:23;2.30;;;1.47;;
4674;SDS011;2351;50.812;12.872;2023-02-03T14:57:08;0.60;;;0.40;;
4674;SDS011;2351;50.812;12.872;2023-02-03T14:59:53;8.53;;;1.37;;
4674;SDS011;2351;50.812;12.872;2023-02-03T15:02:28;1.23;;;0.80;;
4674;SDS011;2351;50.812;12.872;2023-02-03T15:11:05;5.90;;;1.20;;
4674;SDS011;2351;50.812;12.872;2023-02-03T15:13:56;1.90;;;0.93;;
4674;SDS011;2351;50.812;12.872;2023-02-03T15:16:45;5.50;;;1.37;;
4674;SDS011;2351;50.812;12.872;2023-02-03T15:19:22;8.43;;;1.57;;
4674;SDS011;2351;50.812;12.872;2023-02-03T15:21:56;6.43;;;1.27;;
4674;SDS011;2351;50.812;12.872;2023-02-03T15:24:33;5.97;;;1.40;;
4674;SDS011;2351;50.812;12.872;2023-02-03T15:27:17;3.97;;;1.27;;
4674;SDS011;2351;50.812;12.872;2023-02-03T15:29:52;7.63;;;1.90;;
4674;SDS011;2351;50.812;12.872;2023-02-03T15:32:27;7.57;;;1.70;;
4674;SDS011;2351;50.812;12.872;2023-02-03T15:35:04;7.63;;;1.67;;
4674;SDS011;2351;50.812;12.872;2023-02-03T15:37:43;6.63;;;1.30;;
4674;SDS011;2351;50.812;12.872;2023-02-03T15:40:19;5.07;;;1.20;;
4674;SDS011;2351;50.812;12.872;2023-02-03T15:42:53;7.90;;;1.60;;
4674;SDS011;2351;50.812;12.872;2023-02-03T15:45:29;1.93;;;1.10;;
4674;SDS011;2351;50.812;12.872;2023-02-03T15:48:05;3.37;;;1.40;;
4674;SDS011;2351;50.812;12.872;2023-02-03T15:50:45;4.93;;;1.40;;
4674;SDS011;2351;50.812;12.872;2023-02-03T15:53:24;13.27;;;1.70;;
4674;SDS011;2351;50.812;12.872;2023-02-03T15:56:00;5.37;;;1.30;;
4674;SDS011;2351;50.812;12.872;2023-02-03T15:58:39;4.53;;;1.10;;
4674;SDS011;2351;50.812;12.872;2023-02-03T16:01:15;10.60;;;2.63;;
4674;SDS011;2351;50.812;12.872;2023-02-03T16:03:52;7.10;;;1.33;;
4674;SDS011;2351;50.812;12.872;2023-02-03T16:06:26;5.53;;;1.40;;
4674;SDS011;2351;50.812;12.872;2023-02-03T16:09:06;10.37;;;2.80;;
4674;SDS011;2351;50.812;12.872;2023-02-03T16:12:03;11.00;;;1.80;;
4674;SDS011;2351;50.812;12.872;2023-02-03T16:14:44;6.77;;;1.90;;
4674;SDS011;2351;50.812;12.872;2023-02-03T16:17:20;2.90;;;1.80;;
4674;SDS011;2351;50.812;12.872;2023-02-03T16:23:04;6.00;;;2.00;;
4674;SDS011;2351;50.812;12.872;2023-02-03T16:26:15;7.47;;;1.83;;
4674;SDS011;2351;50.812;12.872;2023-02-03T16:32:13;2.13;;;0.83;;
4674;SDS011;2351;50.812;12.872;2023-02-03T16:35:07;13.83;;;2.37;;
4674;SDS011;2351;50.812;12.872;2023-02-03T16:38:03;8.43;;;1.57;;
4674;SDS011;2351;50.812;12.872;2023-02-03T16:40:53;6.30;;;1.50;;
4674;SDS011;2351;50.812;12.872;2023-02-03T16:43:43;4.87;;;1.40;;